sensor_id;sensor_type;location;lat;lon;timestamp;pressure;altitude;pressure_sealevel;temperature;humidity
44531;BME280;30240;47.418;0.700;2023-05-08T00:01:29;101029.4921875;;;14.81;84.77
44531;BME280;30240;47.418;0.700;2023-05-08T00:03:53;101030.36499023438;;;14.84;84.79
44531;BME280;30240;47.418;0.700;2023-05-08T00:06:19;101033.48388671875;;;14.68;85.02
44531;BME280;30240;47.418;0.700;2023-05-08T00:08:44;101033.48388671875;;;14.68;85.02
44531;BME280;30240;47.418;0.700;2023-05-08T00:11:09;101033.06884765625;;;14.68;85.09
44531;BME280;30240;47.418;0.700;2023-05-08T00:13:34;101029.37622070312;;;14.73;84.94
44531;BME280;30240;47.418;0.700;2023-05-08T00:15:59;101032.2265625;;;14.77;84.96
44531;BME280;30240;47.418;0.700;2023-05-08T00:18:23;101028.06396484375;;;14.73;84.91
44531;BME280;30240;47.418;0.700;2023-05-08T00:20:49;101028.06396484375;;;14.73;84.91
44531;BME280;30240;47.418;0.700;2023-05-08T00:23:13;101028.55224609375;;;14.78;84.96
44531;BME280;30240;47.418;0.700;2023-05-08T00:25:38;101026.72119140625;;;14.74;84.93
44531;BME280;30240;47.418;0.700;2023-05-08T00:28:03;101025.93994140625;;;14.81;84.8
44531;BME280;30240;47.418;0.700;2023-05-08T00:30:29;101020.25146484375;;;14.76;84.83
44531;BME280;30240;47.418;0.700;2023-05-08T00:32:53;101016.60766601562;;;14.8;84.98
44531;BME280;30240;47.418;0.700;2023-05-08T00:35:19;101016.60766601562;;;14.8;84.98
44531;BME280;30240;47.418;0.700;2023-05-08T00:37:44;101021.09375;;;14.71;85.07
44531;BME280;30240;47.418;0.700;2023-05-08T00:40:09;101018.96362304688;;;14.76;85.06
44531;BME280;30240;47.418;0.700;2023-05-08T00:42:33;101016.54663085938;;;14.68;85.21
44531;BME280;30240;47.418;0.700;2023-05-08T00:44:59;101013.5498046875;;;14.71;85.23
44531;BME280;30240;47.418;0.700;2023-05-08T00:47:24;101013.5498046875;;;14.71;85.23
44531;BME280;30240;47.418;0.700;2023-05-08T00:49:49;101016.57104492188;;;14.63;85.29
44531;BME280;30240;47.418;0.700;2023-05-08T00:52:14;101019.1650390625;;;14.55;85.35
44531;BME280;30240;47.418;0.700;2023-05-08T00:54:39;101021.2646484375;;;14.56;85.64
44531;BME280;30240;47.418;0.700;2023-05-08T00:57:05;101017.0166015625;;;14.51;85.77
44531;BME280;30240;47.418;0.700;2023-05-08T00:59:29;101017.0166015625;;;14.51;85.77
44531;BME280;30240;47.418;0.700;2023-05-08T01:01:54;101017.02880859375;;;14.47;85.83
44531;BME280;30240;47.418;0.700;2023-05-08T01:04:20;101010.82763671875;;;14.5;86.0
44531;BME280;30240;47.418;0.700;2023-05-08T01:06:43;101009.18579101562;;;14.46;86.05
44531;BME280;30240;47.418;0.700;2023-05-08T01:09:08;101006.78100585938;;;14.43;86.16
44531;BME280;30240;47.418;0.700;2023-05-08T01:11:37;101006.78100585938;;;14.43;86.16
44531;BME280;30240;47.418;0.700;2023-05-08T01:14:04;101014.14184570312;;;14.37;86.14
44531;BME280;30240;47.418;0.700;2023-05-08T01:16:28;101008.7158203125;;;14.35;86.22
44531;BME280;30240;47.418;0.700;2023-05-08T01:18:59;101008.7890625;;;14.35;86.45
44531;BME280;30240;47.418;0.700;2023-05-08T01:21:20;101008.3984375;;;14.3;86.58
44531;BME280;30240;47.418;0.700;2023-05-08T01:24:41;101008.3984375;;;14.3;86.58
44531;BME280;30240;47.418;0.700;2023-05-08T01:25:01;101008.3984375;;;14.3;86.58
44531;BME280;30240;47.418;0.700;2023-05-08T01:25:10;101008.3984375;;;14.3;86.58
44531;BME280;30240;47.418;0.700;2023-05-08T01:26:43;101007.5439453125;;;14.3;86.58
44531;BME280;30240;47.418;0.700;2023-05-08T01:26:58;101007.5439453125;;;14.3;86.58
44531;BME280;30240;47.418;0.700;2023-05-08T01:27:19;101007.5439453125;;;14.3;86.58
44531;BME280;30240;47.418;0.700;2023-05-08T01:29:40;101004.70581054688;;;14.39;86.56
44531;BME280;30240;47.418;0.700;2023-05-08T01:31:02;101006.201171875;;;14.32;86.61
44531;BME280;30240;47.418;0.700;2023-05-08T01:33:23;101003.662109375;;;14.25;86.91
44531;BME280;30240;47.418;0.700;2023-05-08T01:35:46;101003.662109375;;;14.25;86.91
44531;BME280;30240;47.418;0.700;2023-05-08T01:38:13;101004.11987304688;;;14.22;86.94
44531;BME280;30240;47.418;0.700;2023-05-08T01:38:18;101004.11987304688;;;14.22;86.94
44531;BME280;30240;47.418;0.700;2023-05-08T01:40:44;101007.92236328125;;;14.22;86.95
44531;BME280;30240;47.418;0.700;2023-05-08T01:40:50;101007.92236328125;;;14.22;86.95
44531;BME280;30240;47.418;0.700;2023-05-08T01:43:06;101008.0322265625;;;14.28;86.67
44531;BME280;30240;47.418;0.700;2023-05-08T01:45:25;101008.79516601562;;;14.24;86.91
44531;BME280;30240;47.418;0.700;2023-05-08T01:47:50;101008.79516601562;;;14.24;86.91
44531;BME280;30240;47.418;0.700;2023-05-08T01:50:17;101006.591796875;;;14.35;86.86
44531;BME280;30240;47.418;0.700;2023-05-08T01:52:42;101005.57861328125;;;14.29;86.84
44531;BME280;30240;47.418;0.700;2023-05-08T01:55:07;100994.00024414062;;;14.28;87.02
44531;BME280;30240;47.418;0.700;2023-05-08T01:57:29;100995.95947265625;;;14.36;86.67
44531;BME280;30240;47.418;0.700;2023-05-08T01:59:55;100995.95947265625;;;14.36;86.67
44531;BME280;30240;47.418;0.700;2023-05-08T02:02:19;100989.56298828125;;;14.26;86.81
44531;BME280;30240;47.418;0.700;2023-05-08T02:04:44;100991.60766601562;;;14.36;86.54
44531;BME280;30240;47.418;0.700;2023-05-08T02:07:08;100994.91577148438;;;14.35;86.84
44531;BME280;30240;47.418;0.700;2023-05-08T02:09:34;101000.50048828125;;;14.17;87.1
44531;BME280;30240;47.418;0.700;2023-05-08T02:11:59;101004.04052734375;;;14.02;87.5
44531;BME280;30240;47.418;0.700;2023-05-08T02:14:24;101004.04052734375;;;14.02;87.5
44531;BME280;30240;47.418;0.700;2023-05-08T02:16:50;101010.11962890625;;;14.0;87.74
44531;BME280;30240;47.418;0.700;2023-05-08T02:19:15;101014.00146484375;;;13.91;87.89
44531;BME280;30240;47.418;0.700;2023-05-08T02:21:39;101015.4052734375;;;13.8;88.46
44531;BME280;30240;47.418;0.700;2023-05-08T02:24:04;101015.52124023438;;;13.83;88.42
44531;BME280;30240;47.418;0.700;2023-05-08T02:26:30;101015.52124023438;;;13.83;88.42
44531;BME280;30240;47.418;0.700;2023-05-08T02:28:54;101018.85375976562;;;13.9;88.05
44531;BME280;30240;47.418;0.700;2023-05-08T02:31:19;101015.71655273438;;;13.93;87.93
44531;BME280;30240;47.418;0.700;2023-05-08T02:33:44;101011.328125;;;14.0;87.63
44531;BME280;30240;47.418;0.700;2023-05-08T02:36:10;101009.18579101562;;;13.97;87.77
44531;BME280;30240;47.418;0.700;2023-05-08T02:38:36;101009.18579101562;;;13.97;87.77
44531;BME280;30240;47.418;0.700;2023-05-08T02:41:00;101005.85327148438;;;13.67;88.36
44531;BME280;30240;47.418;0.700;2023-05-08T02:43:24;101001.171875;;;13.5;88.94
44531;BME280;30240;47.418;0.700;2023-05-08T02:45:53;100996.82006835938;;;13.56;88.98
44531;BME280;30240;47.418;0.700;2023-05-08T02:45:58;100996.82006835938;;;13.56;88.98
44531;BME280;30240;47.418;0.700;2023-05-08T02:48:19;100997.7783203125;;;13.6;88.9
44531;BME280;30240;47.418;0.700;2023-05-08T02:50:43;100997.7783203125;;;13.6;88.9
44531;BME280;30240;47.418;0.700;2023-05-08T02:53:07;100990.78369140625;;;13.67;88.57
44531;BME280;30240;47.418;0.700;2023-05-08T02:55:32;100986.92016601562;;;13.65;88.29
44531;BME280;30240;47.418;0.700;2023-05-08T02:58:05;100987.2314453125;;;13.59;88.49
44531;BME280;30240;47.418;0.700;2023-05-08T03:00:21;100983.154296875;;;13.52;88.62
44531;BME280;30240;47.418;0.700;2023-05-08T03:02:52;100983.154296875;;;13.52;88.62
44531;BME280;30240;47.418;0.700;2023-05-08T03:05:14;100985.52856445312;;;13.52;88.68
44531;BME280;30240;47.418;0.700;2023-05-08T03:07:36;100985.7666015625;;;13.42;88.98
44531;BME280;30240;47.418;0.700;2023-05-08T03:10:01;100980.15747070312;;;13.26;89.56
44531;BME280;30240;47.418;0.700;2023-05-08T03:12:26;100983.203125;;;13.21;89.65
44531;BME280;30240;47.418;0.700;2023-05-08T03:14:54;100983.203125;;;13.21;89.65
44531;BME280;30240;47.418;0.700;2023-05-08T03:17:15;100978.77197265625;;;13.15;89.84
44531;BME280;30240;47.418;0.700;2023-05-08T03:19:40;100975.45166015625;;;13.12;90.04
44531;BME280;30240;47.418;0.700;2023-05-08T03:22:05;100982.33032226562;;;13.01;90.28
44531;BME280;30240;47.418;0.700;2023-05-08T03:24:30;100972.57080078125;;;13.03;90.41
44531;BME280;30240;47.418;0.700;2023-05-08T03:26:55;100972.57080078125;;;13.03;90.41
44531;BME280;30240;47.418;0.700;2023-05-08T03:29:19;100970.22705078125;;;13.03;90.38
44531;BME280;30240;47.418;0.700;2023-05-08T03:31:44;100965.04516601562;;;13.04;90.14
44531;BME280;30240;47.418;0.700;2023-05-08T03:34:11;100962.17041015625;;;12.99;90.07
44531;BME280;30240;47.418;0.700;2023-05-08T03:36:34;100955.2490234375;;;12.93;90.11
44531;BME280;30240;47.418;0.700;2023-05-08T03:38:59;100953.15551757812;;;12.96;90.2
44531;BME280;30240;47.418;0.700;2023-05-08T03:41:24;100953.15551757812;;;12.96;90.2
44531;BME280;30240;47.418;0.700;2023-05-08T03:43:49;100960.205078125;;;12.93;89.97
44531;BME280;30240;47.418;0.700;2023-05-08T03:46:15;100960.82763671875;;;12.94;89.9
44531;BME280;30240;47.418;0.700;2023-05-08T03:48:39;100958.12377929688;;;12.93;89.88
44531;BME280;30240;47.418;0.700;2023-05-08T03:51:04;100954.58374023438;;;12.92;89.96
44531;BME280;30240;47.418;0.700;2023-05-08T03:53:29;100954.58374023438;;;12.92;89.96
44531;BME280;30240;47.418;0.700;2023-05-08T03:55:55;100950.25024414062;;;12.86;90.11
44531;BME280;30240;47.418;0.700;2023-05-08T03:58:23;100958.25805664062;;;12.87;90.23
44531;BME280;30240;47.418;0.700;2023-05-08T04:00:51;100964.892578125;;;12.69;90.56
44531;BME280;30240;47.418;0.700;2023-05-08T04:03:15;100971.37451171875;;;12.63;90.91
44531;BME280;30240;47.418;0.700;2023-05-08T04:05:37;100971.37451171875;;;12.63;90.91
44531;BME280;30240;47.418;0.700;2023-05-08T04:08:02;100971.9970703125;;;12.69;91.04
44531;BME280;30240;47.418;0.700;2023-05-08T04:10:29;100966.455078125;;;12.68;91.15
44531;BME280;30240;47.418;0.700;2023-05-08T04:12:53;100968.359375;;;12.65;91.21
44531;BME280;30240;47.418;0.700;2023-05-08T04:15:20;100970.8251953125;;;12.56;91.26
44531;BME280;30240;47.418;0.700;2023-05-08T04:17:41;100970.8251953125;;;12.56;91.26
44531;BME280;30240;47.418;0.700;2023-05-08T04:20:05;100970.47119140625;;;12.56;91.32
44531;BME280;30240;47.418;0.700;2023-05-08T04:22:30;100963.81225585938;;;12.52;91.31
44531;BME280;30240;47.418;0.700;2023-05-08T04:24:56;100963.14086914062;;;12.55;91.3
44531;BME280;30240;47.418;0.700;2023-05-08T04:27:19;100966.6259765625;;;12.62;91.29
44531;BME280;30240;47.418;0.700;2023-05-08T04:29:43;100966.6259765625;;;12.62;91.29
44531;BME280;30240;47.418;0.700;2023-05-08T04:32:09;100966.3330078125;;;12.6;91.28
44531;BME280;30240;47.418;0.700;2023-05-08T04:34:34;100966.52221679688;;;12.53;91.3
44531;BME280;30240;47.418;0.700;2023-05-08T04:36:58;100973.27880859375;;;12.58;91.22
44531;BME280;30240;47.418;0.700;2023-05-08T04:39:23;100975.52490234375;;;12.75;91.15
44531;BME280;30240;47.418;0.700;2023-05-08T04:41:49;100975.52490234375;;;12.75;91.15
44531;BME280;30240;47.418;0.700;2023-05-08T04:44:13;100982.9833984375;;;12.63;90.91
44531;BME280;30240;47.418;0.700;2023-05-08T04:46:38;100990.0390625;;;12.82;90.93
44531;BME280;30240;47.418;0.700;2023-05-08T04:49:03;100985.7421875;;;12.76;90.82
44531;BME280;30240;47.418;0.700;2023-05-08T04:51:28;100991.3818359375;;;12.76;90.8
44531;BME280;30240;47.418;0.700;2023-05-08T04:53:53;100991.3818359375;;;12.76;90.8
44531;BME280;30240;47.418;0.700;2023-05-08T04:56:18;100997.06420898438;;;12.79;90.91
44531;BME280;30240;47.418;0.700;2023-05-08T04:58:43;100995.84350585938;;;12.93;90.76
44531;BME280;30240;47.418;0.700;2023-05-08T05:01:08;100999.85961914062;;;13.11;90.49
44531;BME280;30240;47.418;0.700;2023-05-08T05:03:33;101000.50048828125;;;13.03;90.35
44531;BME280;30240;47.418;0.700;2023-05-08T05:06:00;101000.50048828125;;;13.03;90.35
44531;BME280;30240;47.418;0.700;2023-05-08T05:08:24;101005.21850585938;;;13.08;90.08
44531;BME280;30240;47.418;0.700;2023-05-08T05:10:48;101010.68725585938;;;13.14;90.08
44531;BME280;30240;47.418;0.700;2023-05-08T05:13:13;101009.28344726562;;;13.14;90.22
44531;BME280;30240;47.418;0.700;2023-05-08T05:15:41;101008.7158203125;;;13.31;90.28
44531;BME280;30240;47.418;0.700;2023-05-08T05:18:03;101015.32592773438;;;13.42;89.72
44531;BME280;30240;47.418;0.700;2023-05-08T05:20:29;101015.32592773438;;;13.42;89.72
44531;BME280;30240;47.418;0.700;2023-05-08T05:22:53;101012.20092773438;;;13.43;89.56
44531;BME280;30240;47.418;0.700;2023-05-08T05:25:19;101012.96997070312;;;13.42;89.41
44531;BME280;30240;47.418;0.700;2023-05-08T05:27:44;101009.46044921875;;;13.43;89.32
44531;BME280;30240;47.418;0.700;2023-05-08T05:30:09;101001.25122070312;;;13.42;89.45
44531;BME280;30240;47.418;0.700;2023-05-08T05:32:33;101001.25122070312;;;13.42;89.45
44531;BME280;30240;47.418;0.700;2023-05-08T05:34:58;101009.48486328125;;;13.5;89.01
44531;BME280;30240;47.418;0.700;2023-05-08T05:37:23;101015.7470703125;;;13.55;88.71
44531;BME280;30240;47.418;0.700;2023-05-08T05:39:48;101009.17358398438;;;13.38;89.08
44531;BME280;30240;47.418;0.700;2023-05-08T05:42:13;101007.67211914062;;;13.42;89.06
44531;BME280;30240;47.418;0.700;2023-05-08T05:44:38;101007.67211914062;;;13.42;89.06
44531;BME280;30240;47.418;0.700;2023-05-08T05:47:03;101011.8896484375;;;13.6;88.94
44531;BME280;30240;47.418;0.700;2023-05-08T05:49:28;101009.5458984375;;;13.83;88.33
44531;BME280;30240;47.418;0.700;2023-05-08T05:51:53;101007.11059570312;;;13.94;87.8
44531;BME280;30240;47.418;0.700;2023-05-08T05:54:18;101005.23681640625;;;14.15;87.45
44531;BME280;30240;47.418;0.700;2023-05-08T05:56:43;101005.23681640625;;;14.15;87.45
44531;BME280;30240;47.418;0.700;2023-05-08T05:59:08;101007.50122070312;;;14.07;87.29
44531;BME280;30240;47.418;0.700;2023-05-08T06:01:33;101007.62329101562;;;14.49;86.49
44531;BME280;30240;47.418;0.700;2023-05-08T06:03:58;101010.986328125;;;14.7;86.16
44531;BME280;30240;47.418;0.700;2023-05-08T06:06:23;101013.09204101562;;;14.51;86.32
44531;BME280;30240;47.418;0.700;2023-05-08T06:08:49;101013.09204101562;;;14.51;86.32
44531;BME280;30240;47.418;0.700;2023-05-08T06:11:13;101013.34228515625;;;14.63;85.78
44531;BME280;30240;47.418;0.700;2023-05-08T06:13:39;101016.9189453125;;;14.55;86.09
44531;BME280;30240;47.418;0.700;2023-05-08T06:16:04;101015.0146484375;;;14.98;85.45
44531;BME280;30240;47.418;0.700;2023-05-08T06:18:29;101012.36572265625;;;15.02;85.13
44531;BME280;30240;47.418;0.700;2023-05-08T06:20:55;101012.36572265625;;;15.02;85.13
44531;BME280;30240;47.418;0.700;2023-05-08T06:23:18;101017.48657226562;;;15.15;84.98
44531;BME280;30240;47.418;0.700;2023-05-08T06:25:43;101028.67431640625;;;15.18;84.95
44531;BME280;30240;47.418;0.700;2023-05-08T06:28:08;101023.32153320312;;;15.47;84.69
44531;BME280;30240;47.418;0.700;2023-05-08T06:30:34;101020.84350585938;;;15.53;84.5
44531;BME280;30240;47.418;0.700;2023-05-08T06:32:59;101020.84350585938;;;15.53;84.5
44531;BME280;30240;47.418;0.700;2023-05-08T06:35:23;101015.03295898438;;;15.67;84.06
44531;BME280;30240;47.418;0.700;2023-05-08T06:37:48;101009.35668945312;;;15.93;84.39
44531;BME280;30240;47.418;0.700;2023-05-08T06:40:14;101005.517578125;;;15.86;83.96
44531;BME280;30240;47.418;0.700;2023-05-08T06:42:39;101000.70190429688;;;16.23;83.48
44531;BME280;30240;47.418;0.700;2023-05-08T06:45:04;101009.1064453125;;;15.86;84.08
44531;BME280;30240;47.418;0.700;2023-05-08T06:47:28;101009.1064453125;;;15.86;84.08
44531;BME280;30240;47.418;0.700;2023-05-08T06:49:53;101006.08520507812;;;15.78;84.31
44531;BME280;30240;47.418;0.700;2023-05-08T06:52:18;101010.95581054688;;;15.85;84.13
44531;BME280;30240;47.418;0.700;2023-05-08T06:54:43;101000.21362304688;;;15.98;84.04
44531;BME280;30240;47.418;0.700;2023-05-08T06:57:09;101002.57568359375;;;16.02;84.03
44531;BME280;30240;47.418;0.700;2023-05-08T06:59:34;101002.57568359375;;;16.02;84.03
44531;BME280;30240;47.418;0.700;2023-05-08T07:01:59;101006.18896484375;;;16.24;83.73
44531;BME280;30240;47.418;0.700;2023-05-08T07:04:23;101001.5625;;;16.67;83.17
44531;BME280;30240;47.418;0.700;2023-05-08T07:06:48;101011.16943359375;;;16.64;82.73
44531;BME280;30240;47.418;0.700;2023-05-08T07:09:13;101018.46313476562;;;16.57;83.52
44531;BME280;30240;47.418;0.700;2023-05-08T07:11:38;101018.46313476562;;;16.57;83.52
44531;BME280;30240;47.418;0.700;2023-05-08T07:14:03;101025.18920898438;;;16.57;82.76
44531;BME280;30240;47.418;0.700;2023-05-08T07:16:28;101040.76538085938;;;16.9;82.41
44531;BME280;30240;47.418;0.700;2023-05-08T07:18:53;101044.970703125;;;16.82;83.32
44531;BME280;30240;47.418;0.700;2023-05-08T07:21:18;101045.59326171875;;;17.07;82.3
44531;BME280;30240;47.418;0.700;2023-05-08T07:23:43;101045.59326171875;;;17.07;82.3
44531;BME280;30240;47.418;0.700;2023-05-08T07:26:08;101047.68676757812;;;16.61;82.81
44531;BME280;30240;47.418;0.700;2023-05-08T07:28:34;101051.6845703125;;;16.85;83.18
44531;BME280;30240;47.418;0.700;2023-05-08T07:30:58;101052.9541015625;;;17.1;82.32
44531;BME280;30240;47.418;0.700;2023-05-08T07:33:23;101053.55224609375;;;17.18;81.93
44531;BME280;30240;47.418;0.700;2023-05-08T07:35:48;101053.55224609375;;;17.18;81.93
44531;BME280;30240;47.418;0.700;2023-05-08T07:38:13;101055.77392578125;;;16.96;82.92
44531;BME280;30240;47.418;0.700;2023-05-08T07:40:38;101055.68237304688;;;17.9;81.22
44531;BME280;30240;47.418;0.700;2023-05-08T07:43:03;101058.642578125;;;18.41;80.31
44531;BME280;30240;47.418;0.700;2023-05-08T07:45:28;101065.625;;;18.7;78.05
44531;BME280;30240;47.418;0.700;2023-05-08T07:47:55;101065.625;;;18.7;78.05
44531;BME280;30240;47.418;0.700;2023-05-08T07:50:19;101058.30688476562;;;18.22;79.4
44531;BME280;30240;47.418;0.700;2023-05-08T07:52:43;101062.39013671875;;;18.05;78.98
44531;BME280;30240;47.418;0.700;2023-05-08T07:55:09;101068.89038085938;;;18.71;80.02
44531;BME280;30240;47.418;0.700;2023-05-08T07:57:35;101073.02856445312;;;18.62;78.56
44531;BME280;30240;47.418;0.700;2023-05-08T08:00:00;101073.02856445312;;;18.62;78.56
44531;BME280;30240;47.418;0.700;2023-05-08T08:02:23;101075.76293945312;;;18.6;78.6
44531;BME280;30240;47.418;0.700;2023-05-08T08:04:48;101082.92236328125;;;18.28;80.01
44531;BME280;30240;47.418;0.700;2023-05-08T08:07:14;101089.0625;;;18.12;80.17
44531;BME280;30240;47.418;0.700;2023-05-08T08:09:38;101080.71899414062;;;17.51;81.24
44531;BME280;30240;47.418;0.700;2023-05-08T08:12:04;101080.71899414062;;;17.51;81.24
44531;BME280;30240;47.418;0.700;2023-05-08T08:14:28;101083.39233398438;;;18.04;80.36
44531;BME280;30240;47.418;0.700;2023-05-08T08:16:53;101080.126953125;;;18.2;80.38
44531;BME280;30240;47.418;0.700;2023-05-08T08:19:19;101078.3935546875;;;18.11;79.45
44531;BME280;30240;47.418;0.700;2023-05-08T08:21:44;101079.88891601562;;;17.79;80.03
44531;BME280;30240;47.418;0.700;2023-05-08T08:24:08;101079.3212890625;;;18.53;78.3
44531;BME280;30240;47.418;0.700;2023-05-08T08:26:33;101079.3212890625;;;18.53;78.3
44531;BME280;30240;47.418;0.700;2023-05-08T08:28:58;101079.1748046875;;;18.46;78.41
44531;BME280;30240;47.418;0.700;2023-05-08T08:31:23;101077.71606445312;;;17.24;81.22
44531;BME280;30240;47.418;0.700;2023-05-08T08:33:48;101079.8583984375;;;17.49;80.56
44531;BME280;30240;47.418;0.700;2023-05-08T08:36:14;101080.79833984375;;;17.8;80.57
44531;BME280;30240;47.418;0.700;2023-05-08T08:38:39;101080.79833984375;;;17.8;80.57
44531;BME280;30240;47.418;0.700;2023-05-08T08:41:03;101079.97436523438;;;18.14;80.11
44531;BME280;30240;47.418;0.700;2023-05-08T08:43:28;101085.18676757812;;;18.1;79.85
44531;BME280;30240;47.418;0.700;2023-05-08T08:45:53;101079.94384765625;;;18.21;79.87
44531;BME280;30240;47.418;0.700;2023-05-08T08:48:18;101086.5966796875;;;17.8;80.21
44531;BME280;30240;47.418;0.700;2023-05-08T08:50:46;101086.5966796875;;;17.8;80.21
44531;BME280;30240;47.418;0.700;2023-05-08T08:53:12;101091.6015625;;;17.55;81.4
44531;BME280;30240;47.418;0.700;2023-05-08T08:55:36;101091.0888671875;;;17.8;80.5
44531;BME280;30240;47.418;0.700;2023-05-08T08:58:05;101094.00024414062;;;17.77;80.61
44531;BME280;30240;47.418;0.700;2023-05-08T09:00:27;101085.82763671875;;;18.0;79.81
44531;BME280;30240;47.418;0.700;2023-05-08T09:02:49;101085.82763671875;;;18.0;79.81
44531;BME280;30240;47.418;0.700;2023-05-08T09:05:14;101076.72119140625;;;18.07;79.45
44531;BME280;30240;47.418;0.700;2023-05-08T09:07:39;101077.38037109375;;;18.21;78.82
44531;BME280;30240;47.418;0.700;2023-05-08T09:10:04;101082.13500976562;;;18.38;77.74
44531;BME280;30240;47.418;0.700;2023-05-08T09:12:28;101081.23168945312;;;18.62;76.85
44531;BME280;30240;47.418;0.700;2023-05-08T09:14:53;101081.23168945312;;;18.62;76.85
44531;BME280;30240;47.418;0.700;2023-05-08T09:17:18;101078.125;;;18.42;76.82
44531;BME280;30240;47.418;0.700;2023-05-08T09:19:43;101074.0478515625;;;18.48;77.01
44531;BME280;30240;47.418;0.700;2023-05-08T09:22:09;101072.68676757812;;;19.05;75.86
44531;BME280;30240;47.418;0.700;2023-05-08T09:24:54;101076.28173828125;;;19.46;73.87
44531;BME280;30240;47.418;0.700;2023-05-08T09:26:59;101076.28173828125;;;19.46;73.87
44531;BME280;30240;47.418;0.700;2023-05-08T09:29:23;101070.47119140625;;;18.77;75.61
44531;BME280;30240;47.418;0.700;2023-05-08T09:31:50;101062.7685546875;;;19.26;74.7
44531;BME280;30240;47.418;0.700;2023-05-08T09:34:23;101063.818359375;;;19.12;75.05
44531;BME280;30240;47.418;0.700;2023-05-08T09:36:38;101064.09301757812;;;19.37;73.15
44531;BME280;30240;47.418;0.700;2023-05-08T09:39:04;101064.09301757812;;;19.37;73.15
44531;BME280;30240;47.418;0.700;2023-05-08T09:41:28;101071.67358398438;;;19.94;73.55
44531;BME280;30240;47.418;0.700;2023-05-08T09:44:00;101064.61791992188;;;21.0;69.11
44531;BME280;30240;47.418;0.700;2023-05-08T09:46:20;101067.91381835938;;;19.43;74.45
44531;BME280;30240;47.418;0.700;2023-05-08T09:48:43;101065.85693359375;;;19.77;73.42
44531;BME280;30240;47.418;0.700;2023-05-08T09:51:08;101069.37255859375;;;19.7;73.88
44531;BME280;30240;47.418;0.700;2023-05-08T09:53:33;101069.37255859375;;;19.7;73.88
44531;BME280;30240;47.418;0.700;2023-05-08T09:55:59;101067.71850585938;;;19.23;75.14
44531;BME280;30240;47.418;0.700;2023-05-08T09:58:25;101058.96606445312;;;20.58;71.83
44531;BME280;30240;47.418;0.700;2023-05-08T09:58:36;101058.96606445312;;;20.58;71.83
44531;BME280;30240;47.418;0.700;2023-05-08T10:00:49;101053.98559570312;;;21.14;70.64
44531;BME280;30240;47.418;0.700;2023-05-08T10:03:13;101047.07641601562;;;20.63;70.13
44531;BME280;30240;47.418;0.700;2023-05-08T10:05:39;101047.07641601562;;;20.63;70.13
44531;BME280;30240;47.418;0.700;2023-05-08T10:08:17;101047.998046875;;;21.09;68.68
44531;BME280;30240;47.418;0.700;2023-05-08T10:10:28;101051.45263671875;;;21.1;67.65
44531;BME280;30240;47.418;0.700;2023-05-08T10:12:54;101041.59545898438;;;21.78;67.06
44531;BME280;30240;47.418;0.700;2023-05-08T10:15:19;101044.00634765625;;;20.53;69.73
44531;BME280;30240;47.418;0.700;2023-05-08T10:17:49;101044.00634765625;;;20.53;69.73
44531;BME280;30240;47.418;0.700;2023-05-08T10:20:10;101044.32983398438;;;20.09;71.18
44531;BME280;30240;47.418;0.700;2023-05-08T10:22:36;101048.52905273438;;;19.19;73.39
44531;BME280;30240;47.418;0.700;2023-05-08T10:24:59;101045.72143554688;;;20.32;70.5
44531;BME280;30240;47.418;0.700;2023-05-08T10:27:30;101040.35034179688;;;20.85;69.32
44531;BME280;30240;47.418;0.700;2023-05-08T10:29:52;101040.35034179688;;;20.85;69.32
44531;BME280;30240;47.418;0.700;2023-05-08T10:32:15;101046.56372070312;;;19.99;69.13
44531;BME280;30240;47.418;0.700;2023-05-08T10:34:40;101039.56298828125;;;21.72;67.82
44531;BME280;30240;47.418;0.700;2023-05-08T10:37:04;101036.79809570312;;;21.07;67.71
44531;BME280;30240;47.418;0.700;2023-05-08T10:39:30;101031.47583007812;;;21.12;67.71
44531;BME280;30240;47.418;0.700;2023-05-08T10:41:54;101031.47583007812;;;21.12;67.71
44531;BME280;30240;47.418;0.700;2023-05-08T10:44:19;101025.70190429688;;;21.59;65.27
44531;BME280;30240;47.418;0.700;2023-05-08T10:46:48;101014.697265625;;;21.57;65.16
44531;BME280;30240;47.418;0.700;2023-05-08T10:49:14;101011.2060546875;;;20.18;68.15
44531;BME280;30240;47.418;0.700;2023-05-08T10:51:39;101011.669921875;;;20.41;68.06
44531;BME280;30240;47.418;0.700;2023-05-08T10:54:04;101011.669921875;;;20.41;68.06
44531;BME280;30240;47.418;0.700;2023-05-08T10:56:24;101007.92846679688;;;20.06;69.55
44531;BME280;30240;47.418;0.700;2023-05-08T10:58:54;101005.86547851562;;;20.63;68.85
44531;BME280;30240;47.418;0.700;2023-05-08T11:01:15;100995.73974609375;;;20.23;69.65
44531;BME280;30240;47.418;0.700;2023-05-08T11:03:40;100994.50073242188;;;19.42;70.46
44531;BME280;30240;47.418;0.700;2023-05-08T11:06:04;100994.50073242188;;;19.42;70.46